Terminal Aerodrome Forecast
Issued by NWS

Home | Current Version | Previous Version | Text Only | Print | Product List | Glossary On
Versions: 1 2 3 4 5 6 7 8 9 10 11 12 13 14 15 16 17 18 19 20 21 22 23 24 25 26 27 28 29 30
000
FTUS41 KBOX 161125
TAFHYA
TAF
KHYA 161125Z 1612/1712 00000KT P6SM SCT025
     FM161400 23010G21KT P6SM FEW200
     FM161600 23014G28KT P6SM FEW250
     FM170000 27011G23KT P6SM SKC
     FM170400 30012G23KT P6SM SKC
     FM170900 33012G20KT P6SM SKC=

USA.gov is the U.S. government's official web portal to all federal, state and local government web resources and services.